Time;durP1;ratioP1;P1;durP2;ratioP2;P2;SDS_P1;SDS_P2;PMS_P1;PMS_P2;Temp;Humidity;BMP_temperature;BMP_pressure;BME280_temperature;BME280_humidity;BME280_pressure;Samples;Min_cycle;Max_cycle;Signal;HPM_P1;HPM_P2
2022/04/11 00:02:23;;;;;;;10.77;8.50;;;;;;;3.32;95.47;152217.81;5030047;28;20451;-76
2022/04/11 00:04:59;;;;;;;8.87;7.97;;;;;;;3.25;94.99;152199.81;5029451;28;20449;-76
2022/04/11 00:07:34;;;;;;;10.07;8.30;;;;;;;3.23;94.85;152194.63;5028176;28;20857;-76
2022/04/11 00:10:10;;;;;;;9.80;8.83;;;;;;;3.25;96.77;152199.81;5029717;28;20442;-76
2022/04/11 00:12:46;;;;;;;9.53;8.53;;;;;;;3.22;97.39;152190.81;5027823;28;20467;-76
2022/04/11 00:15:23;;;;;;;9.17;8.27;;;;;;;3.22;94.93;152192.09;5030185;28;20446;-76
2022/04/11 00:17:58;;;;;;;10.33;7.93;;;;;;;3.28;93.81;152206.25;5050577;28;20469;-76
2022/04/11 00:20:34;;;;;;;10.40;8.03;;;;;;;3.37;94.91;152229.41;5033722;28;20443;-76
2022/04/11 00:23:10;;;;;;;8.50;7.10;;;;;;;3.33;93.43;152219.13;5032655;28;20830;-75
2022/04/11 00:25:45;;;;;;;8.13;7.33;;;;;;;3.26;93.93;152202.38;5032393;28;20431;-75
2022/04/11 00:28:21;;;;;;;9.17;8.27;;;;;;;3.19;94.42;152184.38;5018869;28;20446;-76
2022/04/11 00:30:59;;;;;;;9.77;8.13;;;;;;;3.18;95.17;152180.53;5033636;28;20616;-75
2022/04/11 00:33:34;;;;;;;9.63;7.90;;;;;;;3.14;96.05;152170.22;5025910;28;20503;-76
2022/04/11 00:36:10;;;;;;;8.80;8.00;;;;;;;3.12;96.05;152166.38;5022534;28;20451;-75
2022/04/11 00:38:47;;;;;;;9.60;8.70;;;;;;;3.11;95.50;152163.78;5026522;28;20447;-76
2022/04/11 00:41:23;;;;;;;8.80;7.90;;;;;;;3.13;95.53;152168.91;5031387;28;20454;-76
2022/04/11 00:43:59;;;;;;;8.40;7.50;;;;;;;3.09;95.45;152158.66;5016295;28;20919;-75
2022/04/11 00:46:36;;;;;;;9.90;8.10;;;;;;;3.07;95.55;152154.75;5020243;28;20447;-75
2022/04/11 00:49:12;;;;;;;8.47;7.60;;;;;;;3.04;94.99;152145.78;5047363;28;20478;-75
2022/04/11 00:51:54;;;;;;;8.60;7.57;;;;;;;3.01;95.64;152139.34;5017748;28;20439;-75
2022/04/11 00:54:33;;;;;;;11.60;7.40;;;;;;;2.99;95.93;152132.91;5018156;28;20470;-75
2022/04/11 00:57:10;;;;;;;9.17;8.33;;;;;;;2.99;94.73;152132.91;5023731;28;20458;-75
2022/04/11 00:59:46;;;;;;;11.60;8.00;;;;;;;2.98;94.50;152131.63;5031766;28;20449;-76
2022/04/11 01:02:23;;;;;;;11.43;9.20;;;;;;;2.98;95.33;152131.63;5017171;28;20457;-76
2022/04/11 01:04:59;;;;;;;9.50;7.80;;;;;;;2.92;95.00;152116.16;5042306;28;20442;-76
2022/04/11 01:07:36;;;;;;;10.60;8.53;;;;;;;2.91;95.59;152113.56;5023662;28;20782;-75
2022/04/11 01:10:11;;;;;;;9.13;8.00;;;;;;;2.93;95.21;152117.47;5012550;28;20930;-75
2022/04/11 01:12:47;;;;;;;10.20;8.13;;;;;;;2.90;94.34;152109.75;5016018;28;20467;-75
2022/04/11 01:15:23;;;;;;;9.70;8.23;;;;;;;2.89;95.35;152107.16;5018198;28;20477;-75
2022/04/11 01:18:00;;;;;;;12.50;8.90;;;;;;;2.88;97.14;152104.59;5021861;28;20461;-75
2022/04/11 01:20:36;;;;;;;9.40;8.40;;;;;;;2.84;97.45;152095.59;5037030;28;20489;-75
2022/04/11 01:23:13;;;;;;;10.77;8.50;;;;;;;2.79;97.69;152082.72;5036406;28;20956;-75
2022/04/11 01:26:06;;;;;;;12.17;9.10;;;;;;;2.82;98.88;152089.16;5052447;28;20479;-76
2022/04/11 01:28:43;;;;;;;12.70;8.93;;;;;;;2.79;98.83;152082.72;5030568;28;20446;-75
2022/04/11 01:31:19;;;;;;;9.80;7.97;;;;;;;2.81;98.10;152086.56;5041986;28;20449;-75
2022/04/11 01:33:55;;;;;;;9.30;8.10;;;;;;;2.77;99.78;152076.28;5057740;28;20472;-76
2022/04/11 01:36:33;;;;;;;10.17;8.30;;;;;;;2.76;98.77;152073.72;5039025;28;20451;-75
2022/04/11 01:39:11;;;;;;;10.70;7.80;;;;;;;2.72;98.31;152063.44;5029624;28;20462;-75
2022/04/11 01:41:48;;;;;;;10.43;8.50;;;;;;;2.71;98.75;152060.84;5057313;28;20429;-76
2022/04/11 01:44:26;;;;;;;9.17;8.27;;;;;;;2.69;97.80;152057.00;5040641;28;20436;-75
2022/04/11 01:47:03;;;;;;;10.83;8.03;;;;;;;2.70;96.78;152058.31;5072296;28;20489;-76
2022/04/11 01:49:38;;;;;;;9.10;8.10;;;;;;;2.69;97.10;152055.72;5040853;28;20442;-75
2022/04/11 01:52:14;;;;;;;11.60;8.40;;;;;;;2.67;98.45;152050.56;5051625;28;20539;-75
2022/04/11 01:54:51;;;;;;;9.30;7.50;;;;;;;2.62;98.60;152037.72;5040437;28;20491;-75
2022/04/11 01:57:27;;;;;;;9.37;8.47;;;;;;;2.58;100.00;152028.72;5037060;28;20943;-75
2022/04/11 02:00:03;;;;;;;10.00;8.27;;;;;;;2.56;100.00;152023.56;5040547;28;20437;-75
2022/04/11 02:02:53;;;;;;;8.90;7.87;;;;;;;2.53;100.00;152014.56;5055348;28;20908;-76
2022/04/11 02:05:29;;;;;;;10.10;9.10;;;;;;;2.47;100.00;152000.41;5056895;28;20433;-75
2022/04/11 02:08:07;;;;;;;8.97;8.17;;;;;;;2.50;100.00;152006.84;5034292;28;20783;-75
2022/04/11 02:10:44;;;;;;;9.07;8.20;;;;;;;2.54;98.37;152017.16;5054331;28;20952;-75
2022/04/11 02:13:20;;;;;;;8.40;6.67;;;;;;;2.60;97.62;152032.53;5040209;28;20496;-75
2022/04/11 02:15:59;;;;;;;7.33;6.63;;;;;;;2.78;94.82;152080.13;5054380;28;20436;-74
2022/04/11 02:18:34;;;;;;;8.77;7.20;;;;;;;3.02;93.52;152140.59;5060997;28;20484;-75
2022/04/11 02:21:11;;;;;;;7.90;6.90;;;;;;;3.11;92.67;152163.78;5038623;28;20442;-75
2022/04/11 02:23:46;;;;;;;9.60;7.80;;;;;;;3.23;91.77;152194.63;5051967;28;20430;-75
2022/04/11 02:26:24;;;;;;;11.23;6.90;;;;;;;3.17;92.13;152177.94;5039134;28;20429;-75
2022/04/11 02:29:00;;;;;;;10.80;7.57;;;;;;;3.02;92.94;152140.59;5038107;28;20461;-76
2022/04/11 02:31:40;;;;;;;9.53;7.60;;;;;;;3.02;93.04;152141.91;5037909;28;20465;-76
2022/04/11 02:34:16;;;;;;;9.40;7.80;;;;;;;3.01;93.16;152138.06;5038981;28;20457;-76
2022/04/11 02:36:51;;;;;;;10.10;7.53;;;;;;;2.98;93.48;152131.63;5054368;28;20438;-76
2022/04/11 02:39:27;;;;;;;9.80;7.57;;;;;;;3.03;92.84;152143.19;5038873;28;20987;-75
2022/04/11 02:42:05;;;;;;;8.77;7.60;;;;;;;2.98;93.38;152131.63;5036729;28;20441;-75
2022/04/11 02:44:40;;;;;;;8.83;7.83;;;;;;;2.93;94.39;152117.47;5031930;28;20821;-77
2022/04/11 02:47:16;;;;;;;9.50;7.87;;;;;;;2.80;94.52;152084.03;5052586;28;20806;-77
2022/04/11 02:49:52;;;;;;;9.17;8.03;;;;;;;2.91;94.26;152112.34;5035911;28;20454;-75
2022/04/11 02:52:47;;;;;;;9.53;7.70;;;;;;;2.94;93.49;152120.00;5035182;28;20473;-77
2022/04/11 02:55:22;;;;;;;8.43;7.50;;;;;;;2.95;93.58;152122.59;5039276;28;20452;-77
2022/04/11 02:58:00;;;;;;;8.83;7.93;;;;;;;2.97;93.72;152127.75;5037236;28;20448;-77
2022/04/11 03:00:37;;;;;;;13.00;9.30;;;;;;;3.00;93.20;152135.47;5037599;28;20454;-76
2022/04/11 03:03:13;;;;;;;11.00;7.97;;;;;;;3.01;92.55;152138.06;5057067;28;20532;-77
2022/04/11 03:05:51;;;;;;;10.40;9.00;;;;;;;2.95;93.33;152123.91;5034321;28;20441;-77
2022/04/11 03:08:28;;;;;;;8.70;7.70;;;;;;;3.03;92.87;152144.47;5036325;28;20457;-77
2022/04/11 03:11:05;;;;;;;9.27;7.53;;;;;;;2.99;92.64;152132.91;5033597;28;20540;-77
2022/04/11 03:13:42;;;;;;;7.97;7.10;;;;;;;3.02;92.36;152140.59;5036810;28;20481;-77
2022/04/11 03:16:18;;;;;;;9.53;6.87;;;;;;;2.98;92.53;152131.63;5055819;28;20442;-77
2022/04/11 03:18:58;;;;;;;8.10;6.60;;;;;;;3.03;92.28;152143.19;5034951;28;20473;-77
2022/04/11 03:21:34;;;;;;;8.43;7.13;;;;;;;3.07;91.56;152153.50;5036433;28;20438;-77
2022/04/11 03:24:16;;;;;;;9.17;6.50;;;;;;;3.07;91.54;152153.50;5032566;28;20439;-77
2022/04/11 03:26:54;;;;;;;8.60;7.50;;;;;;;3.06;91.18;152150.91;5065826;28;20437;-77
2022/04/11 03:29:38;;;;;;;9.17;6.83;;;;;;;3.14;90.85;152171.50;5029386;28;20540;-77
2022/04/11 03:32:14;;;;;;;7.90;7.10;;;;;;;3.19;90.20;152184.38;5038138;28;20959;-76
2022/04/11 03:34:51;;;;;;;8.70;6.97;;;;;;;3.10;90.50;152161.19;5037674;28;20501;-77
2022/04/11 03:37:27;;;;;;;8.97;6.90;;;;;;;3.12;90.60;152166.38;5036817;28;20939;-77
2022/04/11 03:40:13;;;;;;;8.70;7.10;;;;;;;3.10;90.80;152161.19;5038750;28;20766;-76
2022/04/11 03:42:50;;;;;;;8.77;7.13;;;;;;;3.17;90.06;152179.22;5037739;28;20438;-77
2022/04/11 03:45:27;;;;;;;14.20;7.10;;;;;;;3.15;90.51;152174.03;5034695;28;20477;-77
2022/04/11 03:48:05;;;;;;;8.00;7.07;;;;;;;3.25;90.31;152198.53;5037108;28;20481;-75
2022/04/11 03:50:44;;;;;;;8.43;6.77;;;;;;;3.27;89.17;152204.97;5037594;28;20445;-77
2022/04/11 03:53:24;;;;;;;8.40;6.53;;;;;;;3.32;89.16;152216.53;5039280;28;20497;-77
2022/04/11 03:56:05;;;;;;;8.30;6.67;;;;;;;3.26;88.97;152202.38;5050469;28;20441;-77
2022/04/11 03:58:42;;;;;;;7.63;6.60;;;;;;;3.28;88.95;152206.25;5037849;28;20465;-77
2022/04/11 04:01:19;;;;;;;8.73;6.77;;;;;;;3.25;89.19;152199.81;5037852;28;20543;-77
2022/04/11 04:03:57;;;;;;;10.43;7.10;;;;;;;3.37;88.65;152230.69;5030236;28;21043;-76
2022/04/11 04:06:34;;;;;;;8.20;7.40;;;;;;;3.23;89.14;152194.63;5035942;28;20486;-76
2022/04/11 04:09:10;;;;;;;9.47;7.30;;;;;;;3.30;89.22;152212.69;5036610;28;20457;-76
2022/04/11 04:11:47;;;;;;;8.00;6.70;;;;;;;3.27;89.61;152203.66;5036713;28;20765;-76
2022/04/11 04:14:41;;;;;;;9.60;7.50;;;;;;;3.25;89.16;152198.53;5035974;28;20493;-77
2022/04/11 04:17:20;;;;;;;9.30;7.40;;;;;;;3.35;89.36;152224.25;5034141;28;20489;-77
2022/04/11 04:20:06;;;;;;;7.50;6.70;;;;;;;3.42;89.09;152243.56;5015879;28;20481;-76
2022/04/11 04:22:43;;;;;;;8.17;7.10;;;;;;;3.48;88.85;152259.00;5017172;28;20438;-76
2022/04/11 04:25:19;;;;;;;8.67;6.60;;;;;;;3.48;88.37;152259.00;5018150;28;20460;-77
2022/04/11 04:27:57;;;;;;;9.27;7.17;;;;;;;3.47;88.25;152256.44;5017886;28;21645;-76
2022/04/11 04:30:34;;;;;;;9.43;7.37;;;;;;;3.57;88.17;152280.91;5013786;28;20443;-76
2022/04/11 04:33:12;;;;;;;8.47;7.57;;;;;;;3.45;88.36;152251.28;5015951;28;20486;-76
2022/04/11 04:35:48;;;;;;;7.60;6.80;;;;;;;3.45;88.26;152251.28;5015990;28;20454;-76
2022/04/11 04:38:23;;;;;;;7.90;6.97;;;;;;;3.53;88.08;152271.88;5016669;28;20451;-76
2022/04/11 04:41:03;;;;;;;11.30;7.63;;;;;;;3.50;87.93;152264.16;5032357;28;20793;-76
2022/04/11 04:43:38;;;;;;;10.80;7.57;;;;;;;3.44;88.08;152247.44;5016189;28;20438;-77
2022/04/11 04:46:15;;;;;;;8.80;7.33;;;;;;;3.44;87.91;152247.44;5015451;28;20439;-76
2022/04/11 04:48:59;;;;;;;8.83;7.93;;;;;;;3.47;87.97;152255.13;5017203;28;20443;-76
2022/04/11 04:51:37;;;;;;;11.80;8.83;;;;;;;3.34;87.95;152222.97;5015221;28;20423;-76
2022/04/11 04:54:14;;;;;;;9.70;8.67;;;;;;;3.36;87.91;152228.09;5017411;28;20818;-76
2022/04/11 04:56:59;;;;;;;11.17;9.00;;;;;;;3.45;87.41;152251.28;5014471;28;20818;-76
2022/04/11 04:59:38;;;;;;;12.50;9.80;;;;;;;3.42;87.42;152242.25;5015363;28;21005;-77
2022/04/11 05:02:20;;;;;;;11.67;7.90;;;;;;;3.46;86.93;152252.59;5017080;28;20446;-76
2022/04/11 05:05:03;;;;;;;13.10;7.47;;;;;;;3.54;87.05;152274.47;5016169;28;20449;-76
2022/04/11 05:07:40;;;;;;;7.23;6.07;;;;;;;3.63;86.35;152297.63;5015478;28;20779;-76
2022/04/11 05:10:16;;;;;;;8.10;7.13;;;;;;;3.62;86.36;152295.06;5015289;28;20499;-76
2022/04/11 05:12:53;;;;;;;8.60;7.10;;;;;;;3.62;86.50;152293.78;5030553;28;20455;-77
2022/04/11 05:15:30;;;;;;;10.77;7.60;;;;;;;3.55;87.52;152275.72;5014778;28;20565;-76
2022/04/11 05:18:14;;;;;;;8.13;6.90;;;;;;;3.55;87.46;152275.72;5023624;28;20568;-76
2022/04/11 05:20:52;;;;;;;10.20;7.97;;;;;;;3.46;88.08;152252.59;5031249;28;20437;-76
2022/04/11 05:23:29;;;;;;;9.90;7.90;;;;;;;3.42;88.40;152243.56;5035303;28;20537;-77
2022/04/11 05:26:05;;;;;;;8.10;6.57;;;;;;;3.43;88.48;152246.16;5031099;28;20944;-76
2022/04/11 05:28:43;;;;;;;11.23;8.13;;;;;;;3.47;88.25;152256.44;5053766;28;20449;-77
2022/04/11 05:31:19;;;;;;;9.80;8.63;;;;;;;3.53;88.13;152270.59;5029341;28;20453;-76
2022/04/11 05:33:57;;;;;;;11.13;7.90;;;;;;;3.53;88.51;152271.88;5033430;28;20564;-76
2022/04/11 05:36:35;;;;;;;12.70;8.57;;;;;;;3.51;88.58;152266.75;5034588;28;20544;-76
2022/04/11 05:39:10;;;;;;;9.67;7.37;;;;;;;3.51;88.95;152266.75;5034770;28;21008;-76
2022/04/11 05:41:46;;;;;;;9.77;8.30;;;;;;;3.58;89.06;152284.75;5033559;28;20446;-76
2022/04/11 05:44:22;;;;;;;11.57;8.03;;;;;;;3.70;89.53;152314.38;5031424;28;20442;-77
2022/04/11 05:46:57;;;;;;;11.23;8.50;;;;;;;4.02;88.10;152396.78;5032105;28;20536;-77
2022/04/11 05:49:45;;;;;;;11.33;8.90;;;;;;;4.28;86.30;152462.47;5029792;28;20451;-76
2022/04/11 05:52:22;;;;;;;12.60;8.57;;;;;;;4.57;85.74;152537.19;5030224;28;20456;-77
2022/04/11 05:54:59;;;;;;;9.43;8.43;;;;;;;4.70;84.30;152570.66;5034458;28;20860;-76
2022/04/11 05:57:34;;;;;;;10.60;9.20;;;;;;;4.90;83.92;152622.19;5027155;28;20457;-76
2022/04/11 06:00:11;;;;;;;11.60;9.43;;;;;;;5.20;82.83;152696.94;5037246;28;20438;-76
2022/04/11 06:02:51;;;;;;;12.40;9.67;;;;;;;5.48;81.24;152769.19;5049240;28;20464;-76
2022/04/11 06:05:28;;;;;;;11.13;9.37;;;;;;;5.38;80.43;152743.34;5036367;28;20528;-76
2022/04/11 06:08:05;;;;;;;11.90;9.33;;;;;;;5.51;80.46;152776.88;5049630;28;20446;-76
2022/04/11 06:10:44;;;;;;;13.40;8.83;;;;;;;5.87;79.87;152869.81;5034102;28;20457;-77
2022/04/11 06:13:23;;;;;;;13.17;9.60;;;;;;;6.06;79.54;152918.78;5032076;28;20446;-76
2022/04/11 06:16:01;;;;;;;8.93;7.70;;;;;;;6.29;77.94;152976.88;5034362;28;20461;-76
2022/04/11 06:18:38;;;;;;;9.97;8.20;;;;;;;6.50;78.14;153029.75;5040298;28;20496;-77
2022/04/11 06:21:14;;;;;;;13.03;8.60;;;;;;;6.70;76.52;153081.38;5070652;28;20438;-76
2022/04/11 06:23:51;;;;;;;10.70;8.20;;;;;;;6.85;76.25;153120.13;5038297;28;20446;-77
2022/04/11 06:26:33;;;;;;;10.10;8.20;;;;;;;6.93;74.27;153139.47;5039771;28;20952;-77
2022/04/11 06:29:09;;;;;;;8.60;7.60;;;;;;;7.11;74.72;153187.25;5038546;28;20462;-77
2022/04/11 06:31:46;;;;;;;9.63;8.63;;;;;;;7.12;73.26;153189.81;5051221;28;20442;-76
2022/04/11 06:34:30;;;;;;;8.97;8.07;;;;;;;7.46;73.21;153275.06;5041349;28;20552;-77
2022/04/11 06:37:06;;;;;;;8.60;7.77;;;;;;;7.30;70.36;153236.34;5033683;28;20561;-77
2022/04/11 06:39:43;;;;;;;8.17;7.37;;;;;;;7.34;70.73;153245.34;5055326;28;20446;-77
2022/04/11 06:42:19;;;;;;;12.63;7.80;;;;;;;7.64;69.75;153321.56;5038864;28;20861;-77
2022/04/11 06:44:58;;;;;;;11.20;6.90;;;;;;;7.88;70.14;153383.56;5039325;28;20469;-77
2022/04/11 06:47:37;;;;;;;9.33;7.60;;;;;;;8.09;68.89;153437.81;5038920;28;20767;-77
2022/04/11 06:50:13;;;;;;;9.60;7.53;;;;;;;8.12;66.74;153445.59;5037250;28;20434;-77
2022/04/11 06:52:49;;;;;;;7.53;6.40;;;;;;;7.97;67.55;153406.78;5053623;28;20446;-77
2022/04/11 06:55:28;;;;;;;9.60;7.57;;;;;;;8.14;68.56;153450.75;5035560;28;20709;-77
2022/04/11 06:58:03;;;;;;;7.77;6.80;;;;;;;8.49;66.67;153539.97;5050683;28;20438;-77
2022/04/11 07:00:39;;;;;;;7.10;6.40;;;;;;;8.40;65.61;153516.69;5047506;28;20439;-77
2022/04/11 07:03:15;;;;;;;7.97;6.70;;;;;;;8.38;64.93;153512.84;5030578;28;20449;-77
2022/04/11 07:05:50;;;;;;;8.53;6.03;;;;;;;8.71;64.63;153596.81;5034900;28;20521;-77
2022/04/11 07:08:26;;;;;;;8.63;6.40;;;;;;;8.74;63.43;153603.28;5051910;28;20446;-77
2022/04/11 07:11:04;;;;;;;7.50;6.27;;;;;;;8.57;63.58;153561.97;5051727;28;20536;-77
2022/04/11 07:13:40;;;;;;;7.20;5.50;;;;;;;8.97;64.42;153664.09;5051071;28;20536;-77
2022/04/11 07:16:15;;;;;;;9.50;5.83;;;;;;;9.37;63.82;153764.97;5037248;28;20426;-76
2022/04/11 07:18:51;;;;;;;7.73;6.33;;;;;;;9.67;59.91;153843.88;5046154;28;20465;-77
2022/04/11 07:21:27;;;;;;;6.47;5.80;;;;;;;9.37;60.59;153766.22;5049904;28;20456;-77
2022/04/11 07:24:02;;;;;;;6.90;5.80;;;;;;;9.47;59.38;153792.13;5059183;28;20458;-77
2022/04/11 07:26:40;;;;;;;6.47;5.87;;;;;;;9.47;58.78;153792.13;5057576;28;20441;-77
2022/04/11 07:29:15;;;;;;;6.43;5.83;;;;;;;9.84;58.79;153886.59;5050880;28;20954;-77
2022/04/11 07:31:51;;;;;;;6.90;5.40;;;;;;;9.92;59.58;153907.28;5049689;28;20446;-76
2022/04/11 07:34:27;;;;;;;8.10;6.13;;;;;;;10.23;58.34;153986.28;5053791;28;20461;-77
2022/04/11 07:37:04;;;;;;;7.93;5.87;;;;;;;10.55;57.15;154069.13;5069923;28;20429;-77
2022/04/11 07:39:40;;;;;;;6.80;4.83;;;;;;;10.56;55.36;154070.44;5063248;28;20438;-77
2022/04/11 07:42:17;;;;;;;6.43;5.43;;;;;;;10.23;55.40;153986.28;5068949;28;20450;-77
2022/04/11 07:44:54;;;;;;;5.70;5.10;;;;;;;10.24;56.39;153988.88;5040154;28;20960;-77
2022/04/11 07:47:29;;;;;;;5.50;5.00;;;;;;;10.65;56.39;154093.72;5054757;28;20453;-75
2022/04/11 07:50:06;;;;;;;6.03;5.37;;;;;;;10.57;56.06;154074.31;5031388;28;20448;-77
2022/04/11 07:52:43;;;;;;;5.63;5.03;;;;;;;10.59;54.02;154078.22;5042431;28;20447;-77
2022/04/11 07:55:18;;;;;;;6.30;5.33;;;;;;;10.71;55.52;154110.56;5061765;28;20465;-77
2022/04/11 07:57:55;;;;;;;6.57;5.70;;;;;;;10.61;55.28;154083.38;5045871;28;20441;-77
2022/04/11 08:00:33;;;;;;;6.50;5.80;;;;;;;11.23;54.93;154242.66;5050829;28;21011;-77
2022/04/11 08:03:09;;;;;;;6.47;5.10;;;;;;;11.43;53.43;154295.81;5057943;28;21013;-77
2022/04/11 08:05:44;;;;;;;6.40;5.10;;;;;;;11.58;52.54;154333.38;5046071;28;20443;-77
2022/04/11 08:08:20;;;;;;;6.23;5.60;;;;;;;11.96;52.89;154431.94;5047357;28;20457;-77
2022/04/11 08:10:59;;;;;;;4.97;4.50;;;;;;;11.34;52.28;154272.47;5060688;28;20457;-77
2022/04/11 08:13:36;;;;;;;4.50;4.10;;;;;;;11.55;52.50;154325.59;5042797;28;20572;-77
2022/04/11 08:16:12;;;;;;;7.00;4.67;;;;;;;11.36;51.31;154276.34;5043331;28;20462;-77
2022/04/11 08:18:48;;;;;;;5.50;5.00;;;;;;;11.56;52.82;154329.50;5025715;28;20977;-77
2022/04/11 08:21:23;;;;;;;6.20;5.60;;;;;;;11.46;51.64;154303.53;5038898;28;20537;-77
2022/04/11 08:23:59;;;;;;;5.47;4.97;;;;;;;11.86;52.14;154405.97;5046931;28;20442;-77
2022/04/11 08:26:35;;;;;;;5.80;5.27;;;;;;;11.94;50.45;154425.47;5021574;28;20443;-77
2022/04/11 08:29:11;;;;;;;5.37;4.10;;;;;;;12.44;51.87;154555.09;5022733;28;20451;-77
2022/04/11 08:31:47;;;;;;;5.63;5.07;;;;;;;11.78;50.08;154383.97;5019991;28;20950;-77
2022/04/11 08:34:22;;;;;;;6.40;5.20;;;;;;;11.62;51.15;154343.75;5025300;28;20434;-76
2022/04/11 08:36:59;;;;;;;8.10;5.57;;;;;;;12.01;49.41;154444.91;5024531;28;20456;-77
2022/04/11 08:39:35;;;;;;;5.97;4.57;;;;;;;12.16;51.03;154482.47;5010740;28;20447;-77
2022/04/11 08:42:12;;;;;;;5.17;4.63;;;;;;;11.83;48.43;154398.22;5044947;28;21753;-77
2022/04/11 08:44:51;;;;;;;6.33;4.50;;;;;;;11.96;50.32;154431.94;5025694;28;20499;-77
2022/04/11 08:47:26;;;;;;;4.53;4.13;;;;;;;12.10;50.92;154468.19;5040804;28;20454;-77
2022/04/11 08:50:03;;;;;;;4.87;4.47;;;;;;;12.17;51.30;154486.38;5026191;28;20445;-77
2022/04/11 08:52:39;;;;;;;6.60;5.13;;;;;;;12.32;50.71;154522.66;5026981;28;20451;-77
2022/04/11 08:55:15;;;;;;;5.50;5.00;;;;;;;12.94;49.78;154683.50;5005742;28;20997;-77
2022/04/11 08:57:50;;;;;;;5.07;4.40;;;;;;;12.78;47.98;154641.97;5010879;28;20536;-77
2022/04/11 09:00:27;;;;;;;10.33;4.53;;;;;;;12.76;48.66;154638.06;5028298;28;20442;-77
2022/04/11 09:03:03;;;;;;;5.30;4.80;;;;;;;13.02;49.39;154704.25;5009335;28;20459;-77
2022/04/11 09:05:39;;;;;;;5.90;5.10;;;;;;;12.19;47.57;154491.56;5012755;28;20779;-77
2022/04/11 09:08:14;;;;;;;5.50;3.90;;;;;;;12.18;47.52;154487.63;5027285;28;20451;-76
2022/04/11 09:10:50;;;;;;;5.37;4.00;;;;;;;12.59;50.87;154592.69;5024880;28;20430;-77
2022/04/11 09:13:25;;;;;;;4.53;3.57;;;;;;;12.81;49.34;154651.03;5023503;28;21087;-77
2022/04/11 09:16:03;;;;;;;5.53;3.73;;;;;;;12.73;46.69;154629.00;5039491;28;20459;-77
2022/04/11 09:18:46;;;;;;;3.50;3.07;;;;;;;12.68;47.39;154617.31;5026580;28;20458;-77
2022/04/11 09:21:23;;;;;;;3.57;3.10;;;;;;;13.02;46.98;154704.25;5052298;28;20453;-77
2022/04/11 09:24:15;;;;;;;3.90;3.50;;;;;;;13.19;47.54;154748.38;5033990;28;20442;-76
2022/04/11 09:26:54;;;;;;;4.07;3.20;;;;;;;12.69;45.96;154618.63;5048314;28;20462;-77
2022/04/11 09:29:33;;;;;;;4.20;3.80;;;;;;;12.25;47.18;154504.50;5050213;28;20453;-77
2022/04/11 09:32:10;;;;;;;3.73;3.43;;;;;;;12.71;45.85;154623.78;5033098;28;20450;-77
2022/04/11 09:34:53;;;;;;;3.50;3.20;;;;;;;12.79;44.01;154644.53;5036856;28;20430;-77
2022/04/11 09:37:29;;;;;;;5.30;3.60;;;;;;;12.91;44.98;154675.69;5036502;28;20438;-76
2022/04/11 09:40:05;;;;;;;3.60;3.20;;;;;;;12.87;45.19;154665.28;5047464;28;20435;-76
2022/04/11 09:42:41;;;;;;;4.27;3.73;;;;;;;12.71;45.36;154625.09;5041179;28;20450;-77
2022/04/11 09:45:18;;;;;;;4.57;3.40;;;;;;;12.39;45.61;154542.09;5046725;28;20437;-77
2022/04/11 09:48:02;;;;;;;4.00;3.50;;;;;;;12.17;46.99;154485.06;5044295;28;20465;-77
2022/04/11 09:50:38;;;;;;;4.27;3.87;;;;;;;12.31;45.82;154520.09;5048427;28;20430;-77
2022/04/11 09:53:14;;;;;;;4.23;3.80;;;;;;;12.17;44.85;154486.38;5055931;28;20454;-77
2022/04/11 09:55:52;;;;;;;3.33;3.03;;;;;;;12.35;46.75;154531.75;5052155;28;20808;-77
2022/04/11 09:58:28;;;;;;;3.50;3.07;;;;;;;12.19;44.47;154491.56;5032899;28;20429;-77
2022/04/11 10:01:05;;;;;;;3.33;3.03;;;;;;;12.28;46.54;154513.59;5055927;28;20450;-77
2022/04/11 10:03:41;;;;;;;3.73;3.33;;;;;;;12.10;45.61;154468.19;5072878;28;20549;-76
2022/04/11 10:06:28;;;;;;;4.10;3.67;;;;;;;11.89;46.29;154413.75;5042282;28;20478;-76
2022/04/11 10:09:04;;;;;;;5.57;3.40;;;;;;;12.11;47.57;154469.50;5038092;28;20488;-76
2022/04/11 10:11:39;;;;;;;3.53;3.23;;;;;;;12.08;44.48;154461.72;5065524;28;20941;-76
2022/04/11 10:14:17;;;;;;;4.30;3.90;;;;;;;11.81;45.11;154393.00;5036237;28;20446;-76
2022/04/11 10:16:55;;;;;;;5.50;4.10;;;;;;;11.89;47.05;154413.75;5067985;28;20458;-76
2022/04/11 10:19:35;;;;;;;4.70;3.67;;;;;;;12.05;45.62;154455.25;5018467;28;20803;-76
2022/04/11 10:22:15;;;;;;;4.80;3.10;;;;;;;12.40;46.01;154544.69;5031932;28;20450;-76
2022/04/11 10:24:59;;;;;;;3.73;2.80;;;;;;;12.56;46.87;154584.91;5027514;28;20440;-76
2022/04/11 10:27:37;;;;;;;3.73;3.30;;;;;;;12.58;45.40;154590.06;5025483;28;20451;-76
2022/04/11 10:30:28;;;;;;;4.50;3.60;;;;;;;12.66;45.74;154612.13;5024467;28;20442;-76
2022/04/11 10:33:03;;;;;;;3.60;3.30;;;;;;;12.58;44.97;154590.06;5017665;28;20443;-76
2022/04/11 10:35:45;;;;;;;3.20;2.90;;;;;;;12.70;45.03;154621.22;5023759;28;20462;-77
2022/04/11 10:38:21;;;;;;;3.50;3.20;;;;;;;12.87;45.11;154665.28;5043755;28;20474;-78
2022/04/11 10:40:59;;;;;;;4.10;3.70;;;;;;;12.78;46.89;154643.28;5026788;28;20453;-77
2022/04/11 10:43:34;;;;;;;3.90;3.50;;;;;;;12.60;44.17;154595.28;5029042;28;20830;-75
2022/04/11 10:46:10;;;;;;;3.80;3.40;;;;;;;12.23;45.17;154499.34;5011648;28;20439;-76
2022/04/11 10:49:05;;;;;;;5.00;3.80;;;;;;;12.23;47.20;154501.91;5031918;28;20439;-76
2022/04/11 10:51:42;;;;;;;3.70;3.10;;;;;;;12.24;44.49;154503.19;5027378;28;20475;-76
2022/04/11 10:54:19;;;;;;;3.77;3.13;;;;;;;12.23;44.29;154501.91;5028599;28;20533;-76
2022/04/11 10:56:55;;;;;;;3.70;3.30;;;;;;;12.37;44.09;154535.59;5028540;28;20463;-76
2022/04/11 11:00:04;;;;;;;3.53;3.10;;;;;;;12.43;45.06;154552.50;5011417;28;20796;-76
2022/04/11 11:03:04;;;;;;;4.70;3.10;;;;;;;12.42;45.15;154549.88;5024599;28;20448;-76
2022/04/11 11:05:43;;;;;;;3.37;3.07;;;;;;;12.66;45.37;154612.13;5021048;28;20533;-76
2022/04/11 11:08:38;;;;;;;7.53;2.77;;;;;;;12.75;43.90;154634.19;5028725;28;20438;-76
2022/04/11 11:11:22;;;;;;;4.93;3.10;;;;;;;12.68;45.37;154617.31;5029223;28;20473;-76
2022/04/11 11:13:59;;;;;;;4.73;3.93;;;;;;;12.56;44.99;154586.19;5014232;28;20442;-78
2022/04/11 11:16:39;;;;;;;4.83;3.40;;;;;;;12.74;45.47;154631.56;5015752;28;20863;-77
2022/04/11 11:19:17;;;;;;;3.03;2.73;;;;;;;13.07;47.75;154715.97;5029797;28;20476;-78
2022/04/11 11:22:01;;;;;;;3.60;3.10;;;;;;;13.05;45.53;154712.00;5050284;28;20438;-75
2022/04/11 11:25:18;;;;;;;4.77;3.20;;;;;;;12.89;44.33;154669.22;5051948;28;20961;-77
2022/04/11 11:27:54;;;;;;;4.23;3.80;;;;;;;12.96;43.06;154687.34;5053333;28;20541;-76
2022/04/11 11:30:30;;;;;;;3.70;3.40;;;;;;;12.92;43.99;154677.00;5069705;28;20429;-76
2022/04/11 11:33:08;;;;;;;5.27;3.10;;;;;;;13.06;42.97;154713.28;5050011;28;20528;-76
2022/04/11 11:35:49;;;;;;;3.40;3.10;;;;;;;12.75;42.60;154634.19;5050862;28;20956;-76
2022/04/11 11:38:25;;;;;;;7.40;3.57;;;;;;;12.59;43.13;154592.69;5036617;28;20896;-76
2022/04/11 11:41:03;;;;;;;3.50;2.97;;;;;;;12.70;42.37;154621.22;5051686;28;20430;-76
2022/04/11 11:43:39;;;;;;;4.13;3.73;;;;;;;12.79;42.97;154644.53;5052224;28;20455;-75
2022/04/11 11:46:14;;;;;;;4.37;3.63;;;;;;;12.78;42.86;154641.97;5053449;28;20445;-77
2022/04/11 11:48:50;;;;;;;3.93;3.53;;;;;;;12.72;42.29;154627.72;5051817;28;20441;-77
2022/04/11 11:51:27;;;;;;;3.23;2.83;;;;;;;12.89;42.88;154670.53;5050218;28;20437;-77
2022/04/11 11:54:03;;;;;;;3.70;3.27;;;;;;;12.74;43.25;154631.56;5047914;28;20450;-77
2022/04/11 11:56:44;;;;;;;3.90;2.77;;;;;;;12.74;42.21;154631.56;5053765;28;20469;-77
2022/04/11 11:59:22;;;;;;;3.80;3.20;;;;;;;12.86;43.19;154662.72;5065862;28;20477;-77
2022/04/11 12:04:52;;;;;;;4.23;3.80;;;;;;;12.75;41.01;154635.50;5051500;28;21091;-77
2022/04/11 12:07:28;;;;;;;3.30;2.93;;;;;;;12.99;40.80;154696.47;5036882;28;20453;-77
2022/04/11 12:10:07;;;;;;;3.43;3.07;;;;;;;13.01;40.19;154700.31;5053135;28;20433;-77
2022/04/11 12:12:46;;;;;;;3.50;3.20;;;;;;;13.00;40.69;154697.75;5049532;28;20446;-77
2022/04/11 12:15:22;;;;;;;3.20;2.90;;;;;;;12.98;40.30;154693.84;5038053;28;20438;-78
2022/04/11 12:18:02;;;;;;;4.10;3.30;;;;;;;-143.37;100.00;62585.38;5051345;28;20917;-77
2022/04/11 12:20:38;;;;;;;3.10;2.70;;;;;;;-143.37;100.00;62585.38;5050658;28;20892;-78
2022/04/11 12:23:15;;;;;;;4.37;2.63;;;;;;;-143.37;100.00;62585.38;5051944;28;20453;-77